Time;durP1;ratioP1;P1;durP2;ratioP2;P2;SDS_P1;SDS_P2;PMS_P1;PMS_P2;Temp;Humidity;BMP_temperature;BMP_pressure;BME280_temperature;BME280_humidity;BME280_pressure;Samples;Min_cycle;Max_cycle;Signal;HPM_P1;HPM_P2
2024/03/09 00:00:20;;;;;;;11.25;8.40;;;;;;;1.81;82.53;94942.44;5130762;27;20026;-67
2024/03/09 00:02:46;;;;;;;13.52;10.15;;;;;;;1.78;82.88;94935.72;5159746;27;20443;-67
2024/03/09 00:05:12;;;;;;;15.05;10.00;;;;;;;1.79;83.77;94940.78;5135470;27;20100;-67
2024/03/09 00:07:37;;;;;;;15.77;10.90;;;;;;;2.01;83.53;94938.06;5150700;27;20038;-67
2024/03/09 00:10:07;;;;;;;14.48;10.73;;;;;;;2.07;83.57;94939.50;5151057;27;20022;-67
2024/03/09 00:12:36;;;;;;;14.45;10.32;;;;;;;2.19;83.63;94943.22;5141037;27;20035;-67
2024/03/09 00:15:02;;;;;;;13.18;9.68;;;;;;;2.15;83.17;94927.16;5158686;27;20034;-67
2024/03/09 00:17:28;;;;;;;11.75;8.20;;;;;;;2.30;83.20;94947.81;5150638;27;20042;-67
2024/03/09 00:19:53;;;;;;;15.05;9.88;;;;;;;2.16;84.32;94941.63;5169178;27;20018;-67
2024/03/09 00:22:20;;;;;;;15.23;9.40;;;;;;;2.11;83.65;94930.75;5171648;27;20034;-67
2024/03/09 00:24:47;;;;;;;14.93;8.82;;;;;;;2.25;83.98;94927.53;5130240;27;20038;-67
2024/03/09 00:27:14;;;;;;;13.00;8.68;;;;;;;2.24;83.55;94936.94;5164796;27;20464;-67
2024/03/09 00:29:40;;;;;;;13.45;8.13;;;;;;;2.13;84.12;94918.69;5154675;27;20037;-67
2024/03/09 00:32:05;;;;;;;11.95;7.95;;;;;;;2.37;84.07;94939.75;5119833;27;20035;-67
2024/03/09 00:34:32;;;;;;;11.85;7.65;;;;;;;2.29;84.07;94923.09;5128527;27;20074;-67
2024/03/09 00:36:58;;;;;;;10.90;7.85;;;;;;;2.58;84.26;94943.00;5155022;27;20034;-67
2024/03/09 00:39:23;;;;;;;12.57;8.80;;;;;;;2.65;83.83;94943.53;5136385;27;20029;-67
2024/03/09 00:41:49;;;;;;;13.32;9.60;;;;;;;2.68;84.42;94945.94;5168603;27;20031;-67
2024/03/09 00:44:14;;;;;;;14.07;9.60;;;;;;;2.71;83.78;94924.44;5154646;27;20019;-67
2024/03/09 00:46:40;;;;;;;11.93;9.25;;;;;;;2.83;84.06;94934.06;5136231;27;20031;-67
2024/03/09 00:49:05;;;;;;;15.23;10.27;;;;;;;2.72;84.18;94931.22;5122179;27;20026;-68
2024/03/09 00:51:31;;;;;;;15.77;10.23;;;;;;;2.73;84.24;94918.34;5155977;27;20027;-67
2024/03/09 00:53:56;;;;;;;13.48;9.38;;;;;;;2.81;83.88;94926.44;5136169;27;20022;-67
2024/03/09 00:56:23;;;;;;;14.65;10.57;;;;;;;2.81;83.81;94917.91;5115603;27;20088;-67
2024/03/09 00:58:48;;;;;;;18.13;12.10;;;;;;;2.58;84.18;94925.03;5144877;27;20487;-67
2024/03/09 01:01:14;;;;;;;17.13;12.32;;;;;;;2.56;84.05;94926.84;5157189;27;20034;-67
2024/03/09 01:03:39;;;;;;;19.30;12.75;;;;;;;2.49;84.23;94924.69;5155510;27;20039;-67
2024/03/09 01:06:05;;;;;;;16.25;12.10;;;;;;;2.64;83.75;94924.72;5118828;27;20039;-67
2024/03/09 01:08:31;;;;;;;15.80;11.68;;;;;;;2.67;82.80;94916.06;5120330;27;20484;-69
2024/03/09 01:10:57;;;;;;;18.30;12.43;;;;;;;2.55;82.79;94917.50;5115642;27;20037;-67
2024/03/09 01:13:22;;;;;;;22.48;12.80;;;;;;;2.20;84.03;94903.84;5127225;27;20033;-67
2024/03/09 01:15:51;;;;;;;18.77;13.35;;;;;;;2.07;84.53;94908.75;5115095;27;20027;-67
2024/03/09 01:18:17;;;;;;;16.73;11.60;;;;;;;2.42;83.74;94914.72;5154875;27;20027;-67
2024/03/09 01:20:42;;;;;;;18.98;12.30;;;;;;;2.54;83.42;94908.16;5135332;27;20027;-67
2024/03/09 01:23:09;;;;;;;18.27;11.57;;;;;;;2.61;83.19;94909.50;5118135;27;20427;-67
2024/03/09 01:25:34;;;;;;;15.38;11.70;;;;;;;2.73;82.69;94912.34;5140818;27;20022;-67
2024/03/09 01:27:59;;;;;;;14.65;10.73;;;;;;;2.54;81.22;94900.47;5156441;27;20503;-67
2024/03/09 01:30:25;;;;;;;17.73;11.80;;;;;;;2.42;81.85;94909.59;5155635;27;20035;-67
2024/03/09 01:32:50;;;;;;;15.57;11.07;;;;;;;2.36;82.25;94899.63;5135784;27;20034;-67
2024/03/09 01:35:16;;;;;;;15.32;11.27;;;;;;;2.34;82.32;94900.59;5136403;27;20475;-67
2024/03/09 01:37:42;;;;;;;15.07;11.18;;;;;;;2.35;82.92;94895.41;5135457;27;20495;-67
2024/03/09 01:40:10;;;;;;;16.40;11.50;;;;;;;2.50;82.54;94906.63;5134406;27;20030;-67
2024/03/09 01:42:35;;;;;;;16.83;11.32;;;;;;;2.48;82.40;94903.34;5154455;27;20034;-67
2024/03/09 01:45:05;;;;;;;17.65;11.88;;;;;;;2.50;83.19;94906.63;5115970;27;20424;-67
2024/03/09 01:47:31;;;;;;;16.90;11.07;;;;;;;2.48;82.66;94890.53;5098731;27;20031;-67
2024/03/09 01:49:57;;;;;;;20.20;11.77;;;;;;;2.52;83.08;94902.28;5115022;27;20027;-67
2024/03/09 01:52:23;;;;;;;18.67;12.63;;;;;;;2.56;82.78;94895.25;5087136;27;20456;-67
2024/03/09 01:54:48;;;;;;;19.63;11.88;;;;;;;2.69;83.06;94906.56;5133894;27;20426;-67
2024/03/09 01:57:14;;;;;;;16.52;11.55;;;;;;;2.55;83.31;94889.28;5114349;27;20039;-67
2024/03/09 01:59:42;;;;;;;17.30;11.00;;;;;;;2.60;83.51;94881.38;5088665;27;20019;-67
2024/03/09 02:02:09;;;;;;;15.32;11.18;;;;;;;2.67;83.00;94881.00;5125339;27;20034;-67
2024/03/09 02:04:36;;;;;;;19.35;12.20;;;;;;;2.77;83.01;94889.03;5138755;27;20025;-67
2024/03/09 02:07:03;;;;;;;17.92;11.63;;;;;;;2.76;83.20;94892.53;5117668;27;20064;-67
2024/03/09 02:09:28;;;;;;;19.73;12.18;;;;;;;2.82;82.86;94886.25;5133200;27;20400;-68
2024/03/09 02:11:56;;;;;;;17.17;11.43;;;;;;;2.85;82.81;94891.22;5141242;27;20042;-67
2024/03/09 02:14:21;;;;;;;15.27;10.65;;;;;;;2.89;82.83;94903.78;5134485;27;20027;-67
2024/03/09 02:16:49;;;;;;;17.83;11.25;;;;;;;2.76;82.92;94896.78;5153221;27;20412;-67
2024/03/09 02:19:15;;;;;;;17.92;12.00;;;;;;;2.96;82.85;94906.88;5114368;27;20027;-67
2024/03/09 02:21:40;;;;;;;19.08;13.20;;;;;;;2.78;83.23;94890.69;5138197;27;20030;-67
2024/03/09 02:24:11;;;;;;;19.02;13.23;;;;;;;2.90;82.15;94887.50;5114166;27;20088;-67
2024/03/09 02:26:37;;;;;;;21.20;14.18;;;;;;;2.82;82.38;94884.50;5135409;27;20077;-67
2024/03/09 02:29:02;;;;;;;16.88;12.13;;;;;;;3.01;82.60;94893.81;5139941;27;20031;-67
2024/03/09 02:31:28;;;;;;;18.48;12.15;;;;;;;3.02;82.41;94893.72;5134251;27;20035;-67
2024/03/09 02:33:55;;;;;;;18.60;12.43;;;;;;;3.01;82.60;94876.69;5152819;27;20022;-67
2024/03/09 02:36:24;;;;;;;17.98;12.23;;;;;;;3.16;82.53;94887.06;5134520;27;20411;-67
2024/03/09 02:38:51;;;;;;;17.60;11.98;;;;;;;3.19;82.15;94889.47;5164543;27;20474;-68
2024/03/09 02:41:17;;;;;;;17.23;11.93;;;;;;;3.03;82.34;94899.69;5123918;27;20087;-67
2024/03/09 02:43:43;;;;;;;17.50;11.73;;;;;;;2.83;82.76;94877.63;5110646;27;20031;-67
2024/03/09 02:46:10;;;;;;;16.75;11.73;;;;;;;2.89;83.34;94892.69;5152608;27;20042;-67
2024/03/09 02:48:35;;;;;;;17.25;11.57;;;;;;;2.93;83.36;94870.31;5111135;27;20023;-67
2024/03/09 02:51:01;;;;;;;21.58;13.02;;;;;;;3.06;82.92;94894.41;5117715;27;20377;-67
2024/03/09 02:53:27;;;;;;;22.05;14.23;;;;;;;3.17;81.57;94897.22;5113255;27;20035;-68
2024/03/09 02:55:53;;;;;;;18.77;13.93;;;;;;;3.16;81.91;94902.47;5125885;27;20529;-67
2024/03/09 02:58:19;;;;;;;22.52;17.98;;;;;;;3.05;82.15;94901.28;5154358;27;20468;-68
2024/03/09 03:00:47;;;;;;;21.83;17.00;;;;;;;3.07;82.19;94890.94;5134133;27;20102;-67
2024/03/09 03:03:47;;;;;;;26.45;17.95;;;;;;;3.10;81.62;94885.63;5152383;27;20102;-68
2024/03/09 03:06:05;;;;;;;25.55;18.38;;;;;;;2.98;82.32;94876.00;5158785;27;20129;-67
2024/03/09 03:08:30;;;;;;;24.02;17.70;;;;;;;3.11;82.29;94895.00;5143378;27;20079;-68
2024/03/09 03:10:56;;;;;;;24.70;16.73;;;;;;;3.10;82.16;94886.47;5151891;27;20031;-67
2024/03/09 03:13:21;;;;;;;22.80;16.13;;;;;;;3.19;81.82;94895.41;5152245;27;20034;-68
2024/03/09 03:15:47;;;;;;;23.00;16.02;;;;;;;3.16;81.93;94902.47;5136396;27;20027;-67
2024/03/09 03:18:14;;;;;;;20.58;15.00;;;;;;;3.24;82.29;94897.75;5133508;27;20038;-67
2024/03/09 03:20:39;;;;;;;23.50;15.43;;;;;;;3.39;80.66;94896.94;5134143;27;20026;-67
2024/03/09 03:23:05;;;;;;;22.15;14.75;;;;;;;3.29;81.09;94870.09;5117376;27;20052;-67
2024/03/09 03:25:31;;;;;;;21.02;13.98;;;;;;;3.11;81.68;94851.34;5133372;27;20022;-68
2024/03/09 03:27:57;;;;;;;18.67;13.65;;;;;;;3.30;81.25;94900.81;5129814;28;20108;-67
2024/03/09 03:30:22;;;;;;;17.80;13.02;;;;;;;3.30;80.93;94890.53;5130717;28;20417;-68
2024/03/09 03:32:50;;;;;;;21.77;13.95;;;;;;;3.21;82.26;94879.94;5118548;27;20072;-67
2024/03/09 03:35:17;;;;;;;17.10;12.60;;;;;;;3.30;82.32;94890.53;5122065;28;20061;-67
2024/03/09 03:37:45;;;;;;;19.92;13.57;;;;;;;3.22;82.31;94874.72;5098283;28;20031;-67
2024/03/09 03:40:14;;;;;;;21.08;13.48;;;;;;;3.34;82.01;94893.78;5112474;28;20035;-67
2024/03/09 03:42:41;;;;;;;20.70;14.07;;;;;;;3.39;81.94;94890.97;5112971;27;20079;-67
2024/03/09 03:45:11;;;;;;;22.45;13.27;;;;;;;3.32;82.04;94881.03;5112120;28;20051;-67
2024/03/09 03:47:37;;;;;;;19.02;12.98;;;;;;;3.38;81.69;94899.59;5089708;28;20032;-67
2024/03/09 03:50:03;;;;;;;20.63;13.30;;;;;;;3.29;81.92;94901.72;5090224;28;20036;-68
2024/03/09 03:52:28;;;;;;;20.90;13.20;;;;;;;3.46;81.59;94888.00;5122137;28;20030;-67
2024/03/09 03:54:55;;;;;;;19.05;12.52;;;;;;;3.60;80.83;94883.84;5122710;28;20507;-67
2024/03/09 03:57:21;;;;;;;16.70;11.40;;;;;;;3.57;80.44;94874.56;5112793;28;20038;-67
2024/03/09 03:59:47;;;;;;;18.88;12.98;;;;;;;3.58;80.15;94877.03;5081918;28;20110;-68
2024/03/09 04:02:13;;;;;;;18.08;11.90;;;;;;;3.62;80.35;94887.97;5111143;27;20393;-67
2024/03/09 04:04:39;;;;;;;18.35;12.18;;;;;;;3.68;80.79;94891.97;5116268;27;20027;-67
2024/03/09 04:07:05;;;;;;;23.25;13.13;;;;;;;3.66;81.07;94894.63;5134096;27;20499;-67
2024/03/09 04:09:30;;;;;;;21.63;13.63;;;;;;;3.49;80.87;94881.88;5115854;27;20496;-67
2024/03/09 04:11:56;;;;;;;19.42;12.80;;;;;;;3.54;80.37;94890.97;5124084;27;20072;-67
2024/03/09 04:14:26;;;;;;;18.73;12.35;;;;;;;3.57;80.30;94890.81;5114513;27;20511;-67
2024/03/09 04:16:52;;;;;;;18.45;13.15;;;;;;;3.60;80.58;94889.00;5115417;27;20425;-68
2024/03/09 04:19:18;;;;;;;20.55;13.02;;;;;;;3.63;80.58;94884.50;5095614;28;20032;-67
2024/03/09 04:21:43;;;;;;;19.83;13.43;;;;;;;3.57;80.62;94877.16;5113301;27;20035;-67
2024/03/09 04:24:09;;;;;;;18.67;12.23;;;;;;;3.69;80.33;94888.50;5110683;27;20491;-67
2024/03/09 04:26:36;;;;;;;17.77;12.15;;;;;;;3.70;80.21;94883.25;5111214;28;20028;-67
2024/03/09 04:29:02;;;;;;;19.85;12.38;;;;;;;3.72;80.01;94891.72;5130785;27;20083;-67
2024/03/09 04:31:27;;;;;;;19.55;13.32;;;;;;;3.75;80.16;94890.72;5133159;27;20035;-67
2024/03/09 04:33:52;;;;;;;20.20;13.77;;;;;;;3.78;80.29;94893.13;5130645;27;20035;-67
2024/03/09 04:36:19;;;;;;;19.92;13.10;;;;;;;3.80;80.11;94889.56;5112799;27;20494;-67
2024/03/09 04:38:45;;;;;;;22.35;13.68;;;;;;;3.70;79.80;94877.28;5131960;27;20496;-67
2024/03/09 04:41:11;;;;;;;18.25;12.85;;;;;;;3.76;79.14;94882.09;5113615;27;20031;-68
2024/03/09 04:43:38;;;;;;;19.15;13.85;;;;;;;3.75;79.79;94875.31;5132114;27;20117;-68
2024/03/09 04:46:07;;;;;;;20.00;13.32;;;;;;;3.74;80.04;94886.50;5114389;27;20047;-67
2024/03/09 04:48:33;;;;;;;20.20;13.80;;;;;;;3.57;80.56;94872.00;5115283;27;20065;-67
2024/03/09 04:50:58;;;;;;;18.92;13.77;;;;;;;3.56;80.87;94872.91;5132900;27;20429;-68
2024/03/09 04:53:25;;;;;;;19.08;13.70;;;;;;;3.64;80.58;94890.47;5132874;27;20117;-67
2024/03/09 04:55:53;;;;;;;19.00;13.90;;;;;;;3.70;80.22;94880.69;5132442;27;20062;-67
2024/03/09 04:58:19;;;;;;;22.08;14.60;;;;;;;3.28;80.41;94838.44;5134096;27;20059;-67
2024/03/09 05:00:45;;;;;;;25.88;16.90;;;;;;;3.23;80.89;94888.38;5115768;27;20023;-68
2024/03/09 05:03:12;;;;;;;21.50;14.73;;;;;;;3.60;79.51;94889.00;5131231;27;20537;-67
2024/03/09 05:05:39;;;;;;;20.92;14.30;;;;;;;3.72;79.02;94889.13;5133485;27;20027;-68
2024/03/09 05:08:05;;;;;;;25.95;18.35;;;;;;;3.55;79.57;94896.94;5132688;27;20039;-67
2024/03/09 05:10:31;;;;;;;30.35;19.10;;;;;;;3.56;80.22;94889.13;5132797;27;20472;-68
2024/03/09 05:12:56;;;;;;;32.33;20.25;;;;;;;3.49;80.66;94895.53;5095113;28;20043;-68
2024/03/09 05:15:23;;;;;;;29.02;20.35;;;;;;;3.43;81.23;94890.72;5095080;28;20038;-68
2024/03/09 05:17:49;;;;;;;25.55;18.02;;;;;;;3.65;80.89;94881.84;5113713;28;20027;-68
2024/03/09 05:20:20;;;;;;;24.98;17.95;;;;;;;3.81;79.98;94878.34;5129160;27;20063;-69
2024/03/09 05:22:48;;;;;;;24.08;17.02;;;;;;;3.98;79.42;94889.44;5112314;28;20050;-68
2024/03/09 05:25:13;;;;;;;19.67;14.55;;;;;;;4.02;78.31;94891.75;5129589;27;20115;-68
2024/03/09 05:27:42;;;;;;;25.50;15.32;;;;;;;3.99;78.67;94891.13;5132407;27;20047;-68
2024/03/09 05:30:15;;;;;;;22.27;15.20;;;;;;;3.98;78.81;94892.88;5115861;27;20046;-68
2024/03/09 05:32:42;;;;;;;22.05;15.07;;;;;;;4.01;78.78;94897.81;5132602;27;20059;-68
2024/03/09 05:35:12;;;;;;;21.80;14.65;;;;;;;3.89;79.11;94885.63;5132376;27;20031;-68
2024/03/09 05:37:37;;;;;;;23.67;15.07;;;;;;;3.56;80.14;94878.03;5133851;27;20038;-68
2024/03/09 05:40:05;;;;;;;21.98;14.13;;;;;;;3.59;80.21;94872.72;5115160;27;20374;-68
2024/03/09 05:42:31;;;;;;;26.02;15.90;;;;;;;3.92;79.92;94894.94;5098705;27;20439;-67
2024/03/09 05:44:56;;;;;;;26.73;16.50;;;;;;;4.16;78.21;94901.28;5132124;27;20023;-68
2024/03/09 05:47:22;;;;;;;24.00;15.32;;;;;;;4.24;77.93;94895.72;5121544;27;20027;-68
2024/03/09 05:49:47;;;;;;;22.23;14.95;;;;;;;4.24;77.94;94872.56;5131703;27;20616;-68
2024/03/09 05:52:13;;;;;;;27.17;16.42;;;;;;;4.18;77.96;94886.59;5131859;27;20023;-68
2024/03/09 05:54:38;;;;;;;26.67;16.45;;;;;;;4.12;78.39;94896.38;5132503;27;20110;-67
2024/03/09 05:57:04;;;;;;;25.92;15.10;;;;;;;4.17;78.93;94896.94;5132071;27;20031;-68
2024/03/09 05:59:32;;;;;;;31.38;16.02;;;;;;;4.29;77.93;94893.72;5132805;27;20030;-67
2024/03/09 06:01:57;;;;;;;25.25;16.30;;;;;;;4.20;78.49;94907.88;5131275;27;20031;-68
2024/03/09 06:04:23;;;;;;;25.95;14.95;;;;;;;4.12;78.94;94907.50;5131787;27;20114;-68
2024/03/09 06:06:48;;;;;;;27.77;18.55;;;;;;;4.35;78.39;94907.97;5131716;27;20027;-68
2024/03/09 06:09:15;;;;;;;33.00;22.48;;;;;;;4.52;77.52;94918.09;5114465;27;20064;-67
2024/03/09 06:11:42;;;;;;;28.67;19.70;;;;;;;4.51;76.77;94895.03;5114113;27;20027;-68
2024/03/09 06:14:07;;;;;;;25.98;18.52;;;;;;;4.61;77.00;94916.75;5113831;27;20046;-68
2024/03/09 06:16:33;;;;;;;22.83;15.18;;;;;;;4.60;77.33;94904.81;5113877;27;20524;-67
2024/03/09 06:18:59;;;;;;;30.83;18.23;;;;;;;4.52;76.77;94912.13;5113693;27;20030;-68
2024/03/09 06:21:24;;;;;;;25.40;18.08;;;;;;;4.44;77.30;94913.41;5116055;27;20075;-67
2024/03/09 06:23:50;;;;;;;28.55;18.33;;;;;;;4.20;77.91;94914.78;5126135;27;20023;-68
2024/03/09 06:26:15;;;;;;;27.52;18.02;;;;;;;4.17;78.77;94920.91;5126742;27;20031;-67
2024/03/09 06:28:43;;;;;;;28.77;18.77;;;;;;;4.18;78.83;94922.59;5108453;27;20045;-67
2024/03/09 06:31:08;;;;;;;26.48;17.95;;;;;;;3.68;79.07;94879.97;5125446;27;20226;-68
2024/03/09 06:33:34;;;;;;;27.55;18.27;;;;;;;3.91;79.07;94921.56;5128563;27;20488;-68
2024/03/09 06:36:04;;;;;;;35.00;21.75;;;;;;;3.98;79.26;94930.56;5124927;27;20058;-68
2024/03/09 06:38:30;;;;;;;29.23;19.50;;;;;;;4.01;78.93;94928.69;5108723;27;20100;-68
2024/03/09 06:40:56;;;;;;;35.17;21.50;;;;;;;4.11;79.30;94930.72;5108693;27;20473;-68
2024/03/09 06:43:21;;;;;;;39.28;21.58;;;;;;;4.19;78.99;94928.56;5129058;27;20549;-68
2024/03/09 06:45:49;;;;;;;35.25;22.02;;;;;;;4.25;78.58;94933.34;5126819;27;20031;-68
2024/03/09 06:48:15;;;;;;;34.60;22.00;;;;;;;4.16;78.76;94918.44;5130121;27;20507;-67
2024/03/09 06:50:46;;;;;;;48.58;28.05;;;;;;;3.87;79.97;94938.84;5129305;27;20026;-68
2024/03/09 06:53:12;;;;;;;40.42;24.08;;;;;;;3.62;80.66;94930.81;5097457;27;20293;-68
2024/03/09 06:55:38;;;;;;;34.55;21.73;;;;;;;3.71;81.00;94943.19;5130356;27;20031;-68
2024/03/09 06:58:03;;;;;;;31.23;19.67;;;;;;;3.86;80.79;94941.53;5111900;27;20027;-68
2024/03/09 07:00:29;;;;;;;40.08;24.77;;;;;;;3.65;81.22;94946.06;5129568;27;20110;-68
2024/03/09 07:02:58;;;;;;;39.42;24.70;;;;;;;3.70;81.20;94941.53;5128612;27;20046;-68
2024/03/09 07:05:27;;;;;;;36.45;23.15;;;;;;;3.70;81.71;94946.66;5130282;27;20106;-68
2024/03/09 07:07:54;;;;;;;35.85;23.15;;;;;;;3.86;81.25;94944.94;5129963;27;20024;-68
2024/03/09 07:10:21;;;;;;;38.80;24.02;;;;;;;3.99;80.48;94948.50;5112767;28;20106;-68
2024/03/09 07:12:46;;;;;;;38.75;22.27;;;;;;;3.79;81.45;94951.31;5113203;27;20485;-68
2024/03/09 07:15:15;;;;;;;32.10;21.13;;;;;;;3.76;81.42;94951.47;5110392;28;20031;-68
2024/03/09 07:17:42;;;;;;;31.15;19.98;;;;;;;3.63;81.61;94946.16;5115114;28;20039;-68
2024/03/09 07:20:11;;;;;;;31.70;21.75;;;;;;;3.71;82.17;94954.31;5111936;28;20039;-68
2024/03/09 07:22:39;;;;;;;31.52;19.80;;;;;;;3.77;82.04;94958.28;5124123;28;20027;-68
2024/03/09 07:25:05;;;;;;;31.13;20.50;;;;;;;3.72;82.12;94948.25;5127234;27;20035;-68
2024/03/09 07:27:30;;;;;;;30.23;20.63;;;;;;;3.90;81.99;94951.56;5110450;28;20595;-68
2024/03/09 07:29:57;;;;;;;34.35;21.73;;;;;;;3.99;81.23;94943.34;5127130;27;20106;-68
2024/03/09 07:32:22;;;;;;;61.25;31.15;;;;;;;3.91;81.32;94949.81;5125348;28;20031;-68
2024/03/09 07:34:48;;;;;;;42.85;24.95;;;;;;;3.79;81.96;94930.78;5108810;28;20027;-68
2024/03/09 07:37:13;;;;;;;36.08;24.25;;;;;;;3.96;81.58;94952.97;5090282;28;20061;-68
2024/03/09 07:39:39;;;;;;;37.53;21.77;;;;;;;3.76;81.62;94920.63;5129577;27;20023;-68
2024/03/09 07:42:05;;;;;;;28.75;19.63;;;;;;;3.86;81.69;94944.09;5131579;27;20031;-68
2024/03/09 07:44:31;;;;;;;33.47;19.65;;;;;;;4.18;81.25;94952.59;5130256;27;20046;-68
2024/03/09 07:46:56;;;;;;;25.23;17.15;;;;;;;4.49;79.26;94954.31;5113911;27;20074;-68
2024/03/09 07:49:22;;;;;;;25.85;17.65;;;;;;;4.50;79.20;94943.09;5131082;27;20505;-70
2024/03/09 07:51:48;;;;;;;24.92;16.45;;;;;;;4.50;78.33;94953.38;5112644;27;20508;-68
2024/03/09 07:54:13;;;;;;;26.30;17.88;;;;;;;4.54;78.58;94956.59;5131312;27;20487;-70
2024/03/09 07:56:39;;;;;;;24.15;16.05;;;;;;;4.56;78.89;94957.34;5132685;27;20122;-68
2024/03/09 07:59:07;;;;;;;25.50;16.77;;;;;;;4.33;79.92;94956.91;5110621;27;20397;-69
2024/03/09 08:01:32;;;;;;;25.98;17.50;;;;;;;4.42;79.90;94965.84;5112498;27;20031;-68
2024/03/09 08:03:58;;;;;;;28.00;17.50;;;;;;;4.69;79.02;94961.72;5129545;27;20043;-69
2024/03/09 08:06:23;;;;;;;27.90;16.33;;;;;;;4.54;79.22;94960.03;5113422;27;20042;-68
2024/03/09 08:08:49;;;;;;;26.08;15.90;;;;;;;4.58;78.73;94946.06;5130488;27;20040;-68
2024/03/09 08:11:16;;;;;;;27.75;17.98;;;;;;;4.76;78.10;94956.19;5110690;27;20028;-68
2024/03/09 08:13:42;;;;;;;21.98;14.73;;;;;;;4.48;79.72;94956.06;5129466;27;20031;-68
2024/03/09 08:16:07;;;;;;;23.42;15.60;;;;;;;4.50;79.74;94953.38;5131204;27;20027;-68
2024/03/09 08:18:36;;;;;;;23.38;15.18;;;;;;;4.75;79.16;94964.84;5129414;27;20493;-68
2024/03/09 08:21:02;;;;;;;27.50;15.57;;;;;;;4.53;79.93;94960.91;5130091;27;20042;-68
2024/03/09 08:23:28;;;;;;;27.58;16.80;;;;;;;4.93;78.63;94956.91;5129316;27;20091;-68
2024/03/09 08:25:53;;;;;;;27.42;16.13;;;;;;;4.92;78.32;94973.25;5113445;27;20039;-68
2024/03/09 08:28:20;;;;;;;24.85;15.93;;;;;;;4.90;78.54;94962.22;5129169;27;20043;-68
2024/03/09 08:30:47;;;;;;;26.00;15.85;;;;;;;4.84;78.88;94978.00;5129673;27;20028;-68
2024/03/09 08:33:12;;;;;;;30.15;17.90;;;;;;;4.90;79.11;94980.25;5112420;27;20447;-68
2024/03/09 08:35:38;;;;;;;26.90;15.00;;;;;;;4.74;78.85;94978.66;5113422;27;20066;-68
2024/03/09 08:38:04;;;;;;;58.50;29.48;;;;;;;4.88;78.83;94974.34;5128827;27;20442;-67
2024/03/09 08:40:32;;;;;;;30.83;21.42;;;;;;;4.76;78.27;94976.78;5128223;27;20130;-68
2024/03/09 08:42:58;;;;;;;31.65;22.98;;;;;;;4.90;78.02;94966.53;5129012;27;20092;-68
2024/03/09 08:45:24;;;;;;;23.48;14.52;;;;;;;4.85;77.99;94964.22;5130445;27;20027;-68
2024/03/09 08:47:51;;;;;;;20.67;12.77;;;;;;;5.04;77.95;94963.16;5128098;27;20031;-68
2024/03/09 08:50:16;;;;;;;26.33;19.15;;;;;;;5.19;76.86;94961.44;5111254;27;20038;-68
2024/03/09 08:52:42;;;;;;;20.70;14.93;;;;;;;5.13;77.31;94968.59;5128435;27;20035;-68
2024/03/09 08:55:10;;;;;;;16.40;11.43;;;;;;;5.10;76.84;94967.97;5130415;27;20142;-68
2024/03/09 08:57:39;;;;;;;22.75;13.27;;;;;;;5.40;75.94;94973.00;5130410;27;20484;-68
2024/03/09 09:00:06;;;;;;;22.98;15.77;;;;;;;5.34;76.29;94957.94;5128178;27;20107;-68
2024/03/09 09:02:31;;;;;;;17.10;10.77;;;;;;;5.28;76.57;94960.88;5110768;27;20023;-68
2024/03/09 09:04:57;;;;;;;20.35;13.05;;;;;;;5.27;76.42;94972.13;5128540;27;20042;-68
2024/03/09 09:07:23;;;;;;;14.13;10.18;;;;;;;5.37;75.80;94968.88;5130090;27;20087;-68
2024/03/09 09:09:48;;;;;;;17.33;11.90;;;;;;;5.50;75.60;94968.16;5094489;27;20045;-68
2024/03/09 09:12:17;;;;;;;21.20;14.93;;;;;;;5.34;76.29;94966.47;5128380;27;20039;-68
2024/03/09 09:14:45;;;;;;;19.30;13.07;;;;;;;5.41;76.02;94955.84;5129355;27;20031;-68
2024/03/09 09:17:11;;;;;;;19.15;13.93;;;;;;;5.51;75.52;94929.38;5123353;27;20091;-68
2024/03/09 09:19:39;;;;;;;16.23;10.80;;;;;;;5.63;75.24;94956.19;5126464;27;20031;-69
2024/03/09 09:22:10;;;;;;;15.23;10.75;;;;;;;5.64;74.58;94944.13;5126372;27;20047;-68
2024/03/09 09:24:36;;;;;;;16.83;12.55;;;;;;;5.86;74.05;94957.34;5128782;27;20038;-68
2024/03/09 09:27:01;;;;;;;15.70;11.25;;;;;;;5.74;74.15;94947.75;5132810;27;20055;-68
2024/03/09 09:29:28;;;;;;;12.27;9.43;;;;;;;5.94;72.26;94949.16;5121770;27;20019;-69
2024/03/09 09:31:55;;;;;;;14.25;11.88;;;;;;;5.75;73.51;94954.59;5110980;27;21498;-68
2024/03/09 09:34:21;;;;;;;17.92;14.05;;;;;;;5.80;74.05;94947.41;5121299;27;20408;-67
2024/03/09 09:36:48;;;;;;;16.83;12.10;;;;;;;5.96;74.01;94952.44;5146469;27;20107;-68
2024/03/09 09:39:14;;;;;;;13.82;10.15;;;;;;;6.26;71.80;94929.88;5117367;27;20035;-74
2024/03/09 09:41:39;;;;;;;14.93;10.70;;;;;;;6.56;72.08;94944.31;5084189;27;20058;-68
2024/03/09 09:44:08;;;;;;;14.38;11.02;;;;;;;6.55;71.13;94955.59;5123112;27;20107;-68
2024/03/09 09:46:34;;;;;;;17.90;13.80;;;;;;;6.62;71.54;94945.69;5115286;27;20038;-68
2024/03/09 09:49:01;;;;;;;13.85;9.15;;;;;;;6.68;69.79;94948.69;5101332;27;20428;-68
2024/03/09 09:51:26;;;;;;;13.45;9.30;;;;;;;6.63;69.95;94950.75;5107663;27;20064;-68
2024/03/09 09:53:53;;;;;;;13.93;9.80;;;;;;;6.70;70.48;94953.75;5108095;27;20011;-68
2024/03/09 09:56:21;;;;;;;14.43;10.07;;;;;;;6.71;70.97;94953.66;5130781;27;20673;-68
2024/03/09 09:58:48;;;;;;;12.90;10.15;;;;;;;6.54;70.48;94947.94;5141859;27;20079;-67
2024/03/09 10:01:18;;;;;;;13.80;10.52;;;;;;;6.59;71.16;94954.44;5112826;27;20035;-68
2024/03/09 10:03:45;;;;;;;14.07;10.63;;;;;;;6.83;69.94;94953.78;5114800;27;20568;-68
2024/03/09 10:06:24;;;;;;;14.13;9.50;;;;;;;7.07;69.33;94953.91;5114862;27;20066;-67
2024/03/09 10:08:50;;;;;;;16.35;9.27;;;;;;;7.43;68.55;94948.00;5124388;27;20049;-68
2024/03/09 10:11:16;;;;;;;12.85;9.65;;;;;;;7.37;68.35;94943.25;5148628;27;20373;-68
2024/03/09 10:13:43;;;;;;;13.95;10.93;;;;;;;7.26;68.38;94950.91;5117461;27;21635;-68
2024/03/09 10:16:09;;;;;;;11.77;9.38;;;;;;;7.44;68.00;94936.75;5095224;27;20035;-68
2024/03/09 10:18:40;;;;;;;14.52;10.77;;;;;;;7.52;67.12;94937.06;5097587;27;20143;-68
2024/03/09 10:21:05;;;;;;;15.73;12.20;;;;;;;7.42;68.67;94940.38;5112825;27;20107;-68
2024/03/09 10:23:31;;;;;;;12.02;8.57;;;;;;;7.41;67.24;94933.53;5106457;27;20030;-67
2024/03/09 10:26:06;;;;;;;11.27;8.70;;;;;;;7.55;67.92;94939.44;5110608;27;20035;-68
2024/03/09 10:28:34;;;;;;;17.73;12.02;;;;;;;7.48;68.62;94933.03;5114454;27;20058;-67
2024/03/09 10:31:02;;;;;;;16.25;11.88;;;;;;;7.48;68.50;94930.44;5108356;27;20031;-67
2024/03/09 10:33:30;;;;;;;31.23;22.67;;;;;;;7.33;69.07;94903.06;5095162;27;20164;-68
2024/03/09 10:35:57;;;;;;;13.10;9.30;;;;;;;7.46;67.94;94916.78;5131721;27;20066;-67
2024/03/09 10:38:23;;;;;;;13.27;9.05;;;;;;;7.63;67.54;94900.09;5130171;27;20034;-68
2024/03/09 10:40:48;;;;;;;14.80;11.35;;;;;;;7.44;68.85;94903.16;5080009;27;20488;-67
2024/03/09 10:43:15;;;;;;;16.08;13.10;;;;;;;7.45;69.38;94912.56;5110433;27;20090;-68
2024/03/09 10:45:41;;;;;;;17.08;11.52;;;;;;;7.42;69.37;94915.34;5113660;27;20474;-68
2024/03/09 10:48:09;;;;;;;14.18;9.57;;;;;;;7.33;68.44;94893.56;5117759;27;20109;-68
2024/03/09 10:51:07;;;;;;;14.38;10.15;;;;;;;7.94;68.61;94901.38;5122068;27;20090;-68
2024/03/09 10:53:54;;;;;;;13.55;10.05;;;;;;;8.06;67.81;94903.06;5079933;27;20088;-68
2024/03/09 10:56:23;;;;;;;13.73;9.32;;;;;;;8.31;66.68;94896.16;5129396;27;20054;-67
2024/03/09 10:58:52;;;;;;;14.15;10.23;;;;;;;8.16;67.66;94894.66;5100733;27;20049;-68
2024/03/09 11:01:20;;;;;;;14.80;10.88;;;;;;;8.03;68.06;94890.38;5117168;27;20103;-68
2024/03/09 11:03:49;;;;;;;13.70;9.48;;;;;;;8.13;67.01;94893.09;5097222;27;20493;-67
2024/03/09 11:06:17;;;;;;;13.05;9.52;;;;;;;8.38;66.05;94874.03;5109450;27;20046;-68
2024/03/09 11:08:44;;;;;;;12.68;9.38;;;;;;;8.15;67.70;94873.13;5111255;27;20023;-67
2024/03/09 11:11:09;;;;;;;17.17;11.73;;;;;;;8.31;67.85;94880.63;5111465;27;20134;-67
2024/03/09 11:13:34;;;;;;;12.93;10.55;;;;;;;8.56;66.69;94881.44;5128089;27;20031;-67
2024/03/09 11:16:00;;;;;;;15.20;11.40;;;;;;;8.57;67.02;94877.91;5114723;27;20031;-68
2024/03/09 11:18:25;;;;;;;13.35;10.10;;;;;;;8.45;66.05;94859.75;5105767;27;20037;-68
2024/03/09 11:21:11;;;;;;;14.43;9.85;;;;;;;8.73;66.04;94855.94;5110056;27;20051;-68
2024/03/09 11:23:37;;;;;;;14.43;10.75;;;;;;;8.84;66.51;94867.25;5108777;27;20027;-67